首页
METAR-TAF:

METAR-TAF

机场 :

哈利法克斯罗伯特·洛恩·斯坦菲尔德国际机场

哈利法克斯, 新斯科舍, 加拿大

纬度: 44-53N, 经度: 063-30W, 海拔: 145米

当前天气观测

该预报发布于1小时和1分钟前的16:00 UTC
风速14节,风向北转东北,有时为20节阵风
温度 3°C
湿度 93%
气压 1007 hPa
能見度: 24.1公里
阴天层高于800英尺

METAR: CYHZ 201600Z 02014G20KT 15SM OVC008 03/02 A2974 RMK ST8 VIS LWR W SLP077

时间: 13:01 (17:01 UTC)

预报

该预报发布于2小时和23分钟前的14:38 UTC
预报有效从20日的 15点(UTC)到 21日的 12点(UTC)
风速10节,风向
能見度: 10公里
散云层高于700英尺
阴天层高于1500英尺
短暂存在
从 20日的 15点(UTC)到 20日的 18点(UTC)
能見度: 4.8公里
阴天层高于700英尺
轻雾
成为
从 20日的 15点(UTC)到 20日的 17点(UTC)
风速15节,风向北转东北,有时为25节阵风
从 20日的 1800点(UTC)
风速15节,风向北转东北,有时为25节阵风
能見度: 4.8公里
多云层高于800英尺
阴天层高于1200英尺
小毛毛雨, 轻雾
从 21日的 0400点(UTC)
风速15节,风向,有时为25节阵风
能見度: 3.2公里
散云层高于300英尺
阴天层高于800英尺
小雨, 轻雾
成为
从 21日的 09点(UTC)到 21日的 11点(UTC)
风速20节,风向,有时为30节阵风

TAF: CYHZ 201438Z 2015/2112 01010KT P6SM SCT007 OVC015 TEMPO 2015/2018 3SM BR OVC007 BECMG 2015/2017 02015G25KT FM201800 02015G25KT 3SM -DZ BR BKN008 OVC012 FM210400 35015G25KT 2SM -RA BR SCT003 OVC008 BECMG 2109/2111 36020G30KT RMK NXT FCST BY 201800Z

超过4000个机场的气象观测和天气预报(METAR&TAF报告)。

可查询的气象台以黄色和红色小点在地图上表示。

将鼠标移到小点上方,可查看气象台名称。

然后点击查看天气观测和预报。

如需切换地图:点击带黑十字的绿色按钮放大地图;点击带横线的绿色按钮缩小地图;或者点击绿色箭头查看邻近地区的地图。


METAR-TAF: